Time;durP1;ratioP1;P1;durP2;ratioP2;P2;SDS_P1;SDS_P2;PMS_P1;PMS_P2;Temp;Humidity;BMP_temperature;BMP_pressure;BME280_temperature;BME280_humidity;BME280_pressure;Samples;Min_cycle;Max_cycle;Signal;HPM_P1;HPM_P2
2022/03/18 00:00:16;;;;;;;15.00;9.93;;;5.50;73.50;;;;;;5032056;28;20502;-83
2022/03/18 00:02:44;;;;;;;19.80;9.82;;;5.50;73.50;;;;;;5038515;28;20057;-84
2022/03/18 00:05:12;;;;;;;15.95;9.73;;;5.40;73.50;;;;;;5038104;28;20045;-84
2022/03/18 00:07:40;;;;;;;16.00;9.63;;;5.40;73.50;;;;;;5037030;28;20414;-84
2022/03/18 00:10:12;;;;;;;20.65;10.43;;;5.40;73.50;;;;;;5036650;28;20128;-83
2022/03/18 00:12:39;;;;;;;19.27;10.65;;;5.40;73.50;;;;;;5034809;28;20053;-84
2022/03/18 00:15:11;;;;;;;16.25;9.65;;;5.30;73.40;;;;;;5038152;28;20046;-84
2022/03/18 00:17:39;;;;;;;20.95;9.77;;;5.30;73.50;;;;;;5039535;28;20119;-84
2022/03/18 00:20:08;;;;;;;18.42;10.05;;;5.30;73.50;;;;;;5037945;28;20054;-84
2022/03/18 00:22:36;;;;;;;19.88;10.50;;;5.20;73.50;;;;;;5036552;28;20048;-84
2022/03/18 00:25:04;;;;;;;15.45;9.93;;;5.20;73.50;;;;;;5037514;28;20103;-84
2022/03/18 00:27:32;;;;;;;14.73;9.25;;;5.20;73.50;;;;;;5016878;28;20046;-84
2022/03/18 00:29:59;;;;;;;16.40;9.82;;;5.10;73.50;;;;;;5046995;28;20061;-84
2022/03/18 00:32:26;;;;;;;15.80;9.75;;;5.20;73.50;;;;;;5035448;28;20045;-84
2022/03/18 00:34:53;;;;;;;15.13;9.43;;;5.10;73.50;;;;;;5036325;28;20453;-84
2022/03/18 00:37:20;;;;;;;17.50;10.10;;;5.10;73.50;;;;;;5037714;28;20052;-84
2022/03/18 00:39:47;;;;;;;16.33;10.45;;;5.00;73.50;;;;;;5035275;28;20596;-85
2022/03/18 00:42:14;;;;;;;18.65;10.70;;;5.00;73.50;;;;;;5035509;28;20115;-85
2022/03/18 00:44:41;;;;;;;16.33;10.43;;;5.00;73.50;;;;;;5037472;28;20506;-85
2022/03/18 00:52:03;;;;;;;20.10;10.80;;;4.90;73.50;;;;;;5037425;28;20476;-84
2022/03/18 00:52:41;;;;;;;17.27;9.63;;;4.90;73.50;;;;;;5036753;28;20512;-83
2022/03/18 00:55:09;;;;;;;16.75;10.55;;;4.90;73.50;;;;;;5036033;28;20036;-83
2022/03/18 00:57:36;;;;;;;20.95;11.43;;;4.90;73.50;;;;;;5033709;28;20056;-84
2022/03/18 01:00:07;;;;;;;15.60;9.35;;;4.80;73.60;;;;;;5038092;28;20050;-83
2022/03/18 01:02:34;;;;;;;18.40;10.32;;;4.80;73.60;;;;;;5038092;28;20050;-83
2022/03/18 01:05:01;;;;;;;16.42;9.95;;;4.80;73.60;;;;;;5036908;28;20087;-83
2022/03/18 01:07:29;;;;;;;14.35;9.40;;;4.70;73.60;;;;;;5036706;28;20049;-84
2022/03/18 01:09:56;;;;;;;17.58;9.98;;;4.70;73.60;;;;;;5036008;28;20044;-83
2022/03/18 01:12:23;;;;;;;14.75;8.57;;;4.70;73.60;;;;;;5033503;28;20055;-84
2022/03/18 01:14:51;;;;;;;16.02;8.93;;;4.70;73.60;;;;;;5038983;28;20045;-83
2022/03/18 01:17:18;;;;;;;15.88;9.48;;;4.70;73.60;;;;;;5036839;28;20529;-83
2022/03/18 01:19:45;;;;;;;15.95;9.15;;;4.60;73.60;;;;;;5036772;28;20091;-83
2022/03/18 01:22:12;;;;;;;17.02;8.68;;;4.60;73.60;;;;;;5036439;28;20490;-84
2022/03/18 01:24:39;;;;;;;13.45;8.25;;;4.50;73.60;;;;;;5033738;28;20045;-83
2022/03/18 01:27:07;;;;;;;14.60;7.57;;;4.50;73.60;;;;;;5036861;28;20061;-83
2022/03/18 01:29:34;;;;;;;15.38;8.38;;;4.50;73.60;;;;;;5035200;28;20060;-83
2022/03/18 01:32:02;;;;;;;12.88;8.00;;;4.50;73.60;;;;;;5036720;28;20132;-84
2022/03/18 01:34:29;;;;;;;12.98;7.72;;;4.50;73.60;;;;;;5036589;28;20052;-83
2022/03/18 01:36:56;;;;;;;14.98;8.23;;;4.40;73.60;;;;;;5035382;28;20053;-84
2022/03/18 01:39:23;;;;;;;12.40;7.22;;;4.40;73.60;;;;;;5032766;28;20560;-83
2022/03/18 01:41:52;;;;;;;13.57;7.40;;;4.40;73.60;;;;;;5037621;28;20053;-85
2022/03/18 01:44:19;;;;;;;15.10;8.05;;;4.40;73.60;;;;;;5036317;28;20137;-85
2022/03/18 01:46:47;;;;;;;11.57;7.20;;;4.30;73.70;;;;;;5036122;28;20087;-85
2022/03/18 01:49:14;;;;;;;14.32;7.55;;;4.30;73.70;;;;;;5036303;28;20128;-85
2022/03/18 01:51:41;;;;;;;16.58;7.35;;;4.20;73.70;;;;;;5033043;28;20064;-84
2022/03/18 01:56:55;;;;;;;11.63;6.40;;;4.20;73.80;;;;;;5038095;28;20053;-83
2022/03/18 01:59:22;;;;;;;12.30;6.90;;;4.20;73.80;;;;;;5036141;28;20049;-83
2022/03/18 02:01:50;;;;;;;12.40;6.82;;;4.20;73.80;;;;;;5036014;28;20091;-83
2022/03/18 02:04:18;;;;;;;11.68;6.82;;;4.20;73.80;;;;;;5035431;28;20049;-83
2022/03/18 02:06:46;;;;;;;10.57;5.70;;;4.10;73.80;;;;;;5033145;28;20103;-83
2022/03/18 02:09:13;;;;;;;10.13;6.32;;;4.10;73.80;;;;;;5034079;28;20046;-83
2022/03/18 02:11:39;;;;;;;11.88;6.70;;;4.10;73.80;;;;;;5035697;28;20057;-84
2022/03/18 02:14:06;;;;;;;11.63;6.53;;;4.00;73.80;;;;;;5035969;28;20053;-84
2022/03/18 02:16:34;;;;;;;11.32;6.15;;;4.00;73.80;;;;;;5035845;28;20525;-84
2022/03/18 02:19:01;;;;;;;10.70;6.90;;;4.00;73.80;;;;;;5034376;28;20040;-85
2022/03/18 02:21:28;;;;;;;10.10;6.78;;;4.00;73.90;;;;;;5015179;28;20045;-85
2022/03/18 02:23:57;;;;;;;9.70;6.13;;;4.00;73.90;;;;;;5037593;28;20391;-84
2022/03/18 02:26:24;;;;;;;11.15;6.93;;;3.90;73.90;;;;;;5035622;28;20056;-84
2022/03/18 02:28:52;;;;;;;11.98;6.63;;;3.90;73.90;;;;;;5035323;28;20046;-84
2022/03/18 02:31:19;;;;;;;10.55;6.13;;;3.90;73.90;;;;;;5035702;28;20098;-84
2022/03/18 02:33:46;;;;;;;9.55;5.63;;;3.90;73.90;;;;;;5033539;28;20075;-84
2022/03/18 02:36:14;;;;;;;14.27;6.32;;;3.90;74.00;;;;;;5033156;28;20072;-83
2022/03/18 02:38:42;;;;;;;9.70;5.93;;;3.90;74.00;;;;;;5035252;28;20049;-84
2022/03/18 02:41:11;;;;;;;12.05;6.00;;;3.90;74.00;;;;;;5035346;28;20145;-84
2022/03/18 02:43:39;;;;;;;10.65;5.90;;;3.80;73.90;;;;;;5035465;28;20049;-83
2022/03/18 02:46:09;;;;;;;12.27;6.65;;;3.80;74.00;;;;;;5035132;28;20041;-85
2022/03/18 02:48:37;;;;;;;11.60;6.32;;;3.80;74.00;;;;;;5031689;28;20081;-83
2022/03/18 02:51:04;;;;;;;10.63;5.97;;;3.80;74.00;;;;;;5035322;28;20049;-84
2022/03/18 02:53:31;;;;;;;12.23;5.97;;;3.80;74.00;;;;;;5035626;28;20053;-83
2022/03/18 02:55:58;;;;;;;11.90;6.32;;;3.70;74.00;;;;;;5035296;28;20049;-84
2022/03/18 02:58:25;;;;;;;11.57;6.40;;;3.70;74.10;;;;;;5033626;28;20049;-84
2022/03/18 03:00:53;;;;;;;11.50;6.38;;;3.70;74.10;;;;;;5033633;28;20045;-84
2022/03/18 03:03:21;;;;;;;13.95;6.60;;;3.70;74.10;;;;;;5031764;28;20057;-83
2022/03/18 03:08:33;;;;;;;9.75;6.18;;;3.70;74.10;;;;;;5036005;28;20180;-83
2022/03/18 03:11:00;;;;;;;14.02;6.60;;;3.70;74.10;;;;;;5034970;28;20065;-83
2022/03/18 03:13:27;;;;;;;10.88;6.53;;;3.60;74.10;;;;;;5033962;28;20083;-83
2022/03/18 03:15:54;;;;;;;11.20;6.60;;;3.60;74.20;;;;;;5033533;28;20112;-84
2022/03/18 03:18:21;;;;;;;11.10;6.25;;;3.60;74.20;;;;;;5031046;28;20133;-83
2022/03/18 03:20:48;;;;;;;13.20;6.32;;;3.60;74.20;;;;;;5036707;28;20053;-83
2022/03/18 03:23:15;;;;;;;12.07;6.80;;;3.60;74.20;;;;;;5034755;28;20057;-83
2022/03/18 03:25:43;;;;;;;13.10;6.30;;;3.50;74.20;;;;;;5034620;28;20056;-83
2022/03/18 03:28:10;;;;;;;11.38;6.07;;;3.60;74.30;;;;;;5034721;28;20068;-83
2022/03/18 03:30:37;;;;;;;17.55;6.25;;;3.50;74.30;;;;;;5031005;28;20568;-83
2022/03/18 03:33:04;;;;;;;12.35;5.93;;;3.50;74.30;;;;;;5034708;28;20055;-83
2022/03/18 03:35:31;;;;;;;16.35;6.00;;;3.50;74.30;;;;;;5035340;28;20049;-84
2022/03/18 03:37:58;;;;;;;12.88;5.55;;;3.50;74.30;;;;;;5033178;28;20053;-83
2022/03/18 03:40:25;;;;;;;14.13;6.25;;;3.50;74.30;;;;;;5034382;28;20053;-83
2022/03/18 03:42:53;;;;;;;11.18;5.63;;;3.50;74.40;;;;;;5033241;28;20057;-84
2022/03/18 03:45:20;;;;;;;11.18;5.90;;;3.50;74.40;;;;;;5031376;28;20107;-84
2022/03/18 03:47:48;;;;;;;9.30;5.45;;;3.50;74.40;;;;;;5036098;28;20045;-83
2022/03/18 03:50:15;;;;;;;10.85;5.80;;;3.50;74.40;;;;;;5034605;28;20046;-83
2022/03/18 03:52:42;;;;;;;13.35;6.63;;;3.50;74.40;;;;;;5034415;28;20045;-83
2022/03/18 03:55:12;;;;;;;11.00;5.65;;;3.50;74.50;;;;;;5034577;28;20052;-83
2022/03/18 03:57:40;;;;;;;11.98;5.68;;;3.50;74.50;;;;;;5031508;28;20111;-84
2022/03/18 04:00:08;;;;;;;12.80;5.50;;;3.50;74.50;;;;;;5034348;28;20083;-83
2022/03/18 04:02:37;;;;;;;10.85;5.82;;;3.50;74.50;;;;;;5035262;28;20100;-84
2022/03/18 04:05:07;;;;;;;9.15;5.07;;;3.40;74.50;;;;;;5034393;28;20407;-83
2022/03/18 04:07:38;;;;;;;10.45;5.47;;;3.40;74.50;;;;;;5034263;28;20049;-83
2022/03/18 04:10:07;;;;;;;12.32;6.13;;;3.40;74.50;;;;;;5033227;28;20045;-84
2022/03/18 04:12:34;;;;;;;13.43;6.03;;;3.40;74.50;;;;;;5030495;28;20053;-84
2022/03/18 04:15:02;;;;;;;14.43;5.70;;;3.40;74.60;;;;;;5034521;28;20054;-84
2022/03/18 04:17:43;;;;;;;11.35;5.40;;;3.40;74.60;;;;;;5033148;28;20052;-83
2022/03/18 04:20:15;;;;;;;13.25;4.90;;;3.40;74.60;;;;;;5034143;28;20084;-83
2022/03/18 04:22:43;;;;;;;9.63;5.35;;;3.40;74.70;;;;;;5034240;28;20045;-84
2022/03/18 04:25:10;;;;;;;11.10;5.82;;;3.40;74.70;;;;;;5034316;28;20094;-84
2022/03/18 04:27:38;;;;;;;12.20;5.97;;;3.40;74.70;;;;;;5031191;28;20053;-84
2022/03/18 04:30:08;;;;;;;13.38;6.72;;;3.40;74.70;;;;;;5037660;28;20056;-83
2022/03/18 04:32:36;;;;;;;12.13;5.97;;;3.40;74.70;;;;;;5038716;28;20418;-83
2022/03/18 04:35:05;;;;;;;12.38;5.72;;;3.30;74.70;;;;;;5037896;28;20111;-83
2022/03/18 04:37:31;;;;;;;13.02;5.60;;;3.40;74.70;;;;;;5037671;28;20052;-83
2022/03/18 04:39:58;;;;;;;11.52;5.43;;;3.30;74.80;;;;;;5037030;28;20045;-83
2022/03/18 04:42:25;;;;;;;11.90;5.38;;;3.30;74.80;;;;;;5033601;28;20407;-83
2022/03/18 04:44:52;;;;;;;9.95;5.55;;;3.30;74.80;;;;;;5039608;28;20045;-83
2022/03/18 04:47:20;;;;;;;11.50;5.07;;;3.30;74.80;;;;;;5037069;28;20057;-83
2022/03/18 04:49:47;;;;;;;13.23;6.13;;;3.30;74.80;;;;;;5037470;28;20561;-84
2022/03/18 04:52:14;;;;;;;12.18;5.63;;;3.30;74.80;;;;;;5037393;28;20095;-83
2022/03/18 04:54:41;;;;;;;12.35;5.57;;;3.30;74.90;;;;;;5033125;28;20042;-83
2022/03/18 04:57:18;;;;;;;12.68;5.75;;;3.20;74.90;;;;;;5036924;28;20112;-83
2022/03/18 04:59:51;;;;;;;10.77;5.40;;;3.30;74.90;;;;;;5069337;28;20049;-83
2022/03/18 05:02:20;;;;;;;13.05;5.65;;;3.30;74.80;;;;;;5037129;28;20553;-83
2022/03/18 05:04:48;;;;;;;11.52;5.40;;;3.20;74.80;;;;;;5037347;28;20064;-83
2022/03/18 05:07:17;;;;;;;9.15;5.38;;;3.20;74.80;;;;;;5036917;28;20091;-83
2022/03/18 05:09:47;;;;;;;11.52;5.35;;;3.20;74.80;;;;;;5034593;28;20038;-83
2022/03/18 05:12:16;;;;;;;12.13;5.70;;;3.20;74.80;;;;;;5033855;28;20049;-84
2022/03/18 05:14:50;;;;;;;12.73;5.35;;;3.20;74.80;;;;;;5037989;28;20045;-83
2022/03/18 05:17:17;;;;;;;10.43;5.25;;;3.20;74.80;;;;;;5036962;28;20445;-83
2022/03/18 05:19:44;;;;;;;10.45;5.47;;;3.20;74.90;;;;;;5036986;28;20050;-83
2022/03/18 05:22:11;;;;;;;11.15;5.65;;;3.20;74.90;;;;;;5036871;28;20114;-83
2022/03/18 05:24:37;;;;;;;11.82;5.20;;;3.20;74.90;;;;;;5033573;28;20042;-83
2022/03/18 05:27:04;;;;;;;10.90;5.70;;;3.20;74.90;;;;;;5037035;28;20056;-83
2022/03/18 05:29:32;;;;;;;10.75;5.47;;;3.20;74.90;;;;;;5036846;28;20058;-83
2022/03/18 05:32:01;;;;;;;12.30;6.05;;;3.20;74.80;;;;;;5036675;28;20107;-83
2022/03/18 05:34:29;;;;;;;10.25;5.40;;;3.10;74.90;;;;;;5035437;28;20048;-84
2022/03/18 05:36:56;;;;;;;11.52;5.60;;;3.10;74.80;;;;;;5035565;28;20433;-83
2022/03/18 05:39:23;;;;;;;10.70;5.43;;;3.10;74.80;;;;;;5032945;28;20825;-83
2022/03/18 05:41:50;;;;;;;10.50;5.63;;;3.10;74.80;;;;;;5038600;28;20107;-84
2022/03/18 05:44:17;;;;;;;16.10;6.43;;;3.10;74.90;;;;;;5036218;28;20060;-83
2022/03/18 05:46:44;;;;;;;11.85;5.85;;;3.10;74.80;;;;;;5036323;28;20046;-83
2022/03/18 05:49:12;;;;;;;11.93;5.70;;;3.00;74.80;;;;;;5036377;28;20041;-83
2022/03/18 05:51:39;;;;;;;12.25;5.60;;;3.10;74.80;;;;;;5033190;28;20049;-84
2022/03/18 05:54:06;;;;;;;11.30;5.25;;;3.00;74.80;;;;;;5036239;28;20045;-83
2022/03/18 05:59:23;;;;;;;12.18;5.55;;;3.00;74.80;;;;;;5035852;28;20537;-83
2022/03/18 06:01:52;;;;;;;11.38;5.65;;;3.00;74.80;;;;;;5036193;28;20045;-83
2022/03/18 06:04:20;;;;;;;10.95;5.90;;;3.00;74.80;;;;;;5036197;28;20133;-83
2022/03/18 06:06:47;;;;;;;12.23;5.78;;;2.90;74.80;;;;;;5033953;28;20068;-84
2022/03/18 06:12:01;;;;;;;9.85;5.32;;;2.90;74.80;;;;;;5045368;28;20049;-83
2022/03/18 06:14:29;;;;;;;11.35;5.45;;;2.90;74.80;;;;;;5035371;28;20059;-83
2022/03/18 06:16:59;;;;;;;9.55;5.38;;;2.90;74.80;;;;;;5035707;28;20053;-83
2022/03/18 06:19:28;;;;;;;10.65;5.13;;;2.90;74.90;;;;;;5035763;28;20041;-84
2022/03/18 06:21:55;;;;;;;9.88;5.50;;;2.90;74.90;;;;;;5041334;28;20041;-83
2022/03/18 06:24:23;;;;;;;10.45;5.18;;;2.90;74.90;;;;;;5032198;28;20072;-84
2022/03/18 06:26:51;;;;;;;12.20;5.78;;;2.90;74.90;;;;;;5036656;28;20046;-84
2022/03/18 06:29:20;;;;;;;10.68;5.05;;;2.90;74.90;;;;;;5035217;28;20075;-83
2022/03/18 06:31:47;;;;;;;12.25;6.57;;;2.90;74.90;;;;;;5035365;28;20045;-84
2022/03/18 06:34:17;;;;;;;15.18;7.15;;;2.80;75.00;;;;;;5035130;28;20429;-84
2022/03/18 06:36:44;;;;;;;18.63;9.55;;;2.80;75.00;;;;;;5032670;28;20041;-84
2022/03/18 06:39:11;;;;;;;18.23;9.82;;;2.80;75.00;;;;;;5033836;28;20053;-84
2022/03/18 06:41:40;;;;;;;19.58;10.50;;;2.80;75.00;;;;;;5036572;28;20057;-83
2022/03/18 06:44:08;;;;;;;22.10;11.50;;;2.80;75.00;;;;;;5035145;28;20045;-84
2022/03/18 06:46:36;;;;;;;20.15;10.55;;;2.70;75.00;;;;;;5035072;28;20046;-84
2022/03/18 06:49:04;;;;;;;17.83;10.70;;;2.70;75.10;;;;;;5034939;28;20083;-84
2022/03/18 06:51:31;;;;;;;20.70;11.57;;;2.70;75.10;;;;;;5013449;28;20049;-85
2022/03/18 06:53:58;;;;;;;18.75;11.13;;;2.70;75.10;;;;;;5044128;28;20053;-85
2022/03/18 06:56:27;;;;;;;18.00;10.20;;;2.80;75.20;;;;;;5033063;28;20522;-85
2022/03/18 06:58:54;;;;;;;17.38;9.98;;;2.80;75.20;;;;;;5034917;28;20053;-85
2022/03/18 07:01:21;;;;;;;18.60;10.00;;;2.70;75.20;;;;;;5034849;28;20056;-85
2022/03/18 07:03:49;;;;;;;16.05;10.15;;;2.70;75.30;;;;;;5033072;28;20494;-85
2022/03/18 07:06:16;;;;;;;19.10;10.23;;;2.70;75.30;;;;;;5032033;28;20053;-85
2022/03/18 07:08:43;;;;;;;22.75;10.02;;;2.80;75.40;;;;;;5036551;28;20053;-84
2022/03/18 07:11:13;;;;;;;14.43;8.90;;;2.70;75.50;;;;;;5034445;28;20049;-85
2022/03/18 07:13:43;;;;;;;17.90;9.98;;;2.80;75.50;;;;;;5034838;28;20045;-85
2022/03/18 07:18:56;;;;;;;20.38;10.50;;;2.80;75.70;;;;;;5031273;28;20052;-85
2022/03/18 07:21:23;;;;;;;20.42;9.57;;;2.80;75.80;;;;;;5046232;28;20041;-85
2022/03/18 07:23:50;;;;;;;15.05;9.63;;;2.80;75.90;;;;;;5036478;28;20079;-84
2022/03/18 07:26:17;;;;;;;17.33;9.95;;;2.90;76.00;;;;;;5033120;28;20056;-84
2022/03/18 07:28:45;;;;;;;20.38;10.75;;;2.90;76.00;;;;;;5034299;28;20132;-84
2022/03/18 07:31:12;;;;;;;18.25;10.07;;;2.90;76.10;;;;;;5033197;28;20075;-84
2022/03/18 07:33:40;;;;;;;14.88;9.88;;;2.90;76.20;;;;;;5031342;28;20077;-84
2022/03/18 07:36:07;;;;;;;14.75;9.43;;;3.00;76.30;;;;;;5034244;28;20045;-85
2022/03/18 07:38:34;;;;;;;25.08;10.95;;;3.00;76.30;;;;;;5035227;28;20053;-84
2022/03/18 07:41:00;;;;;;;19.77;11.00;;;3.00;76.40;;;;;;5034101;28;20049;-84
2022/03/18 07:43:27;;;;;;;20.05;11.50;;;3.20;76.50;;;;;;5034236;28;20057;-85
2022/03/18 07:45:55;;;;;;;18.88;11.40;;;3.20;76.60;;;;;;5032000;28;20037;-84
2022/03/18 07:48:26;;;;;;;22.45;13.15;;;3.30;76.70;;;;;;5030731;28;20421;-84
2022/03/18 07:50:54;;;;;;;19.52;10.82;;;3.30;76.80;;;;;;5036301;28;20080;-84
2022/03/18 07:53:21;;;;;;;21.45;12.07;;;3.40;76.90;;;;;;5045383;28;20059;-84
2022/03/18 07:55:48;;;;;;;20.48;12.38;;;3.50;77.00;;;;;;5039214;28;20469;-83
2022/03/18 07:58:15;;;;;;;19.88;13.15;;;3.50;77.10;;;;;;5034308;28;20445;-83
2022/03/18 08:00:43;;;;;;;21.25;13.25;;;3.60;77.20;;;;;;5031605;28;20096;-83
2022/03/18 08:03:10;;;;;;;29.15;13.40;;;3.70;77.20;;;;;;5034532;28;20449;-83
2022/03/18 08:05:37;;;;;;;23.38;13.55;;;3.80;77.20;;;;;;5039602;28;20115;-84
2022/03/18 08:08:05;;;;;;;19.95;13.15;;;3.90;77.30;;;;;;5037801;28;20049;-84
2022/03/18 08:10:32;;;;;;;18.88;12.75;;;4.00;77.30;;;;;;5038164;28;20565;-85
2022/03/18 08:12:59;;;;;;;20.00;13.20;;;4.10;77.30;;;;;;5037526;28;20406;-84
2022/03/18 08:15:28;;;;;;;20.35;13.52;;;4.20;77.30;;;;;;5033108;28;20048;-84
2022/03/18 08:17:55;;;;;;;20.17;13.43;;;4.30;77.30;;;;;;5071929;28;20145;-84
2022/03/18 08:20:22;;;;;;;18.45;13.02;;;4.40;77.20;;;;;;5037897;28;20100;-84
2022/03/18 08:22:50;;;;;;;19.13;13.00;;;4.50;77.20;;;;;;5037715;28;20107;-84
2022/03/18 08:25:18;;;;;;;19.17;12.77;;;4.60;77.20;;;;;;5038023;28;20075;-84
2022/03/18 08:27:48;;;;;;;18.23;12.77;;;4.70;77.20;;;;;;5035458;28;20049;-84
2022/03/18 08:30:15;;;;;;;21.80;11.95;;;4.90;77.10;;;;;;5035501;28;20104;-84
2022/03/18 08:32:42;;;;;;;21.60;12.38;;;4.90;77.10;;;;;;5037870;28;20111;-84
2022/03/18 08:35:09;;;;;;;20.67;12.75;;;5.00;77.00;;;;;;5037741;28;20564;-84
2022/03/18 08:40:32;;;;;;;22.23;12.82;;;5.30;76.80;;;;;;5037716;28;20041;-84
2022/03/18 08:43:01;;;;;;;21.00;11.68;;;5.40;76.70;;;;;;5037130;28;20044;-84
2022/03/18 08:45:29;;;;;;;25.58;12.00;;;5.50;76.50;;;;;;5033508;28;20480;-83
2022/03/18 08:47:57;;;;;;;18.80;11.60;;;5.60;76.40;;;;;;5046218;28;20049;-84
2022/03/18 08:50:24;;;;;;;23.73;11.68;;;5.80;76.20;;;;;;5037845;28;20045;-84
2022/03/18 08:52:54;;;;;;;19.67;11.32;;;5.90;76.00;;;;;;5036942;28;20049;-84
2022/03/18 08:55:21;;;;;;;19.83;10.65;;;6.00;75.80;;;;;;5036672;28;20571;-84
2022/03/18 08:57:48;;;;;;;18.60;10.70;;;6.10;75.60;;;;;;5035338;28;20045;-84
2022/03/18 09:00:18;;;;;;;16.85;11.48;;;6.20;75.50;;;;;;5034724;28;20053;-84
2022/03/18 09:02:47;;;;;;;21.70;10.75;;;6.40;75.20;;;;;;5039313;28;20050;-84
2022/03/18 09:05:14;;;;;;;17.40;9.95;;;6.40;75.00;;;;;;5037142;28;20046;-84
2022/03/18 09:07:41;;;;;;;15.07;9.55;;;6.60;74.80;;;;;;5035528;28;20576;-84
2022/03/18 09:10:12;;;;;;;17.50;9.63;;;6.70;74.50;;;;;;5037216;28;20048;-84
2022/03/18 09:12:52;;;;;;;23.40;9.55;;;6.80;74.30;;;;;;5033774;28;20037;-84
2022/03/18 09:15:19;;;;;;;16.33;8.63;;;6.90;74.00;;;;;;5033721;28;20053;-84
2022/03/18 09:17:46;;;;;;;15.55;8.75;;;7.00;73.80;;;;;;5038933;28;20042;-85
2022/03/18 09:20:13;;;;;;;16.50;7.93;;;7.10;73.50;;;;;;5036883;28;20062;-84
2022/03/18 09:22:41;;;;;;;16.75;8.18;;;7.20;73.30;;;;;;5036462;28;20045;-85
2022/03/18 09:25:08;;;;;;;17.75;7.82;;;7.30;73.00;;;;;;5036912;28;20049;-84
2022/03/18 09:27:35;;;;;;;15.02;7.68;;;7.40;72.70;;;;;;5033114;28;20156;-84
2022/03/18 09:30:11;;;;;;;19.50;7.80;;;7.50;72.50;;;;;;5036406;28;20510;-84
2022/03/18 09:32:40;;;;;;;15.10;7.93;;;7.70;72.20;;;;;;5038288;28;20425;-85
2022/03/18 09:35:08;;;;;;;12.55;6.72;;;7.80;71.90;;;;;;5036454;28;20049;-85
2022/03/18 09:37:36;;;;;;;15.27;7.03;;;7.90;71.60;;;;;;5035478;28;20046;-85
2022/03/18 09:40:05;;;;;;;16.80;7.10;;;7.90;71.30;;;;;;5036658;28;20471;-84
2022/03/18 09:42:59;;;;;;;14.52;7.60;;;8.00;71.00;;;;;;5022058;28;20049;-85
2022/03/18 09:45:30;;;;;;;16.42;7.78;;;8.20;70.60;;;;;;5032546;28;20095;-84
2022/03/18 09:48:11;;;;;;;14.07;7.47;;;8.30;70.30;;;;;;5045381;28;20053;-85
2022/03/18 09:50:40;;;;;;;15.90;7.75;;;8.40;69.90;;;;;;5037602;28;20099;-84
2022/03/18 09:53:07;;;;;;;13.07;6.50;;;8.50;69.60;;;;;;5036303;28;20395;-85
2022/03/18 09:55:37;;;;;;;15.70;5.75;;;8.60;69.20;;;;;;5036215;28;20053;-85
2022/03/18 09:58:05;;;;;;;10.63;5.13;;;8.70;68.90;;;;;;5036260;28;20055;-84
2022/03/18 10:00:33;;;;;;;12.77;4.70;;;8.90;68.40;;;;;;5032116;28;20116;-84
2022/03/18 10:03:08;;;;;;;12.77;4.75;;;9.00;67.90;;;;;;5036692;28;20049;-84
2022/03/18 10:05:49;;;;;;;9.05;3.92;;;9.10;67.40;;;;;;5036916;28;20060;-84
2022/03/18 10:08:17;;;;;;;8.82;3.83;;;9.20;66.80;;;;;;5035927;28;20136;-84
2022/03/18 10:10:48;;;;;;;11.23;4.30;;;9.40;66.30;;;;;;5035832;28;20068;-85
2022/03/18 10:13:16;;;;;;;9.45;3.80;;;9.50;65.80;;;;;;5035953;28;20057;-85
2022/03/18 10:15:44;;;;;;;10.90;3.83;;;9.60;65.30;;;;;;5032055;28;20095;-84
2022/03/18 10:18:12;;;;;;;11.75;3.20;;;9.70;64.90;;;;;;5034681;28;20045;-84
2022/03/18 10:20:42;;;;;;;8.07;3.75;;;9.80;64.40;;;;;;5035973;28;20056;-84
2022/03/18 10:23:15;;;;;;;9.63;3.53;;;9.90;63.90;;;;;;5035729;28;20045;-84
2022/03/18 10:25:50;;;;;;;8.10;3.30;;;10.00;63.40;;;;;;5034963;28;20049;-84
2022/03/18 10:28:46;;;;;;;6.22;2.88;;;10.20;63.00;;;;;;5034364;28;20528;-84
2022/03/18 10:31:20;;;;;;;8.55;3.00;;;10.30;62.40;;;;;;5035470;28;20052;-84
2022/03/18 10:37:04;;;;;;;8.55;3.22;;;10.40;62.10;;;;;;5033010;28;20056;-84
2022/03/18 10:39:32;;;;;;;7.95;2.83;;;10.60;61.20;;;;;;5031494;28;20041;-84
2022/03/18 10:42:09;;;;;;;6.13;2.58;;;10.70;60.70;;;;;;5043682;28;20044;-84
2022/03/18 10:45:08;;;;;;;7.65;2.65;;;10.80;60.30;;;;;;5036566;28;20111;-84
2022/03/18 10:47:41;;;;;;;7.70;2.45;;;10.90;59.60;;;;;;5009601;28;20396;-84
2022/03/18 10:50:10;;;;;;;6.47;2.60;;;11.00;59.20;;;;;;5010125;28;20061;-84
2022/03/18 10:52:46;;;;;;;7.07;2.90;;;11.00;58.80;;;;;;5010231;28;20117;-84
2022/03/18 10:55:19;;;;;;;12.52;2.80;;;11.20;58.40;;;;;;5010177;28;20064;-84
2022/03/18 10:57:50;;;;;;;5.93;2.72;;;11.20;58.10;;;;;;5010288;28;20046;-84
2022/03/18 11:00:19;;;;;;;7.80;2.55;;;11.30;57.80;;;;;;5010426;28;20151;-85
2022/03/18 11:02:52;;;;;;;9.27;2.50;;;11.40;57.50;;;;;;5010376;28;20046;-84
2022/03/18 11:05:21;;;;;;;8.30;2.55;;;11.50;57.20;;;;;;5010123;28;20096;-84
2022/03/18 11:07:53;;;;;;;6.18;2.33;;;11.50;56.90;;;;;;5010059;28;20086;-84
2022/03/18 11:13:07;;;;;;;7.40;2.35;;;11.70;56.30;;;;;;5010027;28;20046;-86
2022/03/18 11:15:40;;;;;;;11.57;3.85;;;11.80;56.10;;;;;;5010025;28;20046;-84
2022/03/18 11:18:11;;;;;;;4.65;2.20;;;11.80;55.70;;;;;;5009978;28;20050;-85
2022/03/18 11:20:42;;;;;;;6.43;2.35;;;11.90;55.50;;;;;;5010416;28;20462;-85
2022/03/18 11:23:22;;;;;;;8.45;2.10;;;12.00;55.20;;;;;;5028791;28;20107;-86
2022/03/18 11:26:00;;;;;;;6.63;2.08;;;12.00;54.60;;;;;;5038819;28;20053;-85
2022/03/18 11:28:28;;;;;;;7.25;1.90;;;12.00;54.20;;;;;;5031709;28;20053;-85
2022/03/18 11:31:05;;;;;;;5.18;1.67;;;12.10;53.80;;;;;;5033464;28;20057;-85
2022/03/18 11:33:37;;;;;;;5.22;1.83;;;12.20;53.30;;;;;;5014970;28;20065;-83
2022/03/18 11:36:10;;;;;;;5.40;2.38;;;12.20;52.90;;;;;;5035056;28;20506;-84
2022/03/18 11:38:46;;;;;;;7.57;1.98;;;12.20;52.60;;;;;;5041906;28;20502;-84
2022/03/18 11:41:14;;;;;;;9.43;4.43;;;12.30;52.30;;;;;;5041118;28;20056;-84
2022/03/18 11:43:44;;;;;;;8.40;3.28;;;12.30;52.10;;;;;;5040004;28;20103;-84
2022/03/18 11:46:16;;;;;;;7.15;2.75;;;12.30;51.80;;;;;;5040850;28;20468;-86
2022/03/18 11:48:49;;;;;;;6.93;2.70;;;12.40;51.50;;;;;;5038215;28;20076;-84
2022/03/18 11:51:42;;;;;;;9.57;3.10;;;12.40;51.40;;;;;;5038874;28;20483;-84
2022/03/18 11:54:16;;;;;;;6.05;2.80;;;12.40;51.20;;;;;;5050032;28;20509;-85
2022/03/18 11:56:51;;;;;;;7.40;2.95;;;12.40;51.10;;;;;;5041181;28;20049;-85
2022/03/18 11:59:24;;;;;;;6.30;2.50;;;12.50;50.90;;;;;;5041185;28;20058;-85
2022/03/18 12:01:51;;;;;;;8.33;2.40;;;12.50;50.50;;;;;;5040706;28;20041;-84
2022/03/18 12:04:36;;;;;;;7.45;2.53;;;12.50;50.30;;;;;;5039930;28;20076;-84
2022/03/18 12:07:09;;;;;;;7.15;2.20;;;12.50;50.10;;;;;;5040946;28;20103;-85
2022/03/18 12:09:56;;;;;;;4.53;1.95;;;12.60;50.00;;;;;;5022172;28;20056;-84
2022/03/18 12:12:41;;;;;;;8.55;2.50;;;12.60;49.70;;;;;;5037525;28;20526;-84
2022/03/18 12:15:17;;;;;;;5.95;1.92;;;12.70;49.60;;;;;;5040376;28;20049;-84
2022/03/18 12:17:52;;;;;;;6.03;2.17;;;12.70;49.50;;;;;;5041180;28;20045;-84
2022/03/18 12:20:24;;;;;;;5.65;2.88;;;12.70;49.40;;;;;;5040841;28;20456;-84
2022/03/18 12:22:53;;;;;;;7.40;2.40;;;12.80;49.40;;;;;;5040858;28;20092;-84
2022/03/18 12:25:22;;;;;;;8.65;2.67;;;12.80;49.20;;;;;;5039746;28;20044;-83
2022/03/18 12:27:53;;;;;;;6.53;2.33;;;12.80;49.00;;;;;;5038809;28;20038;-84
2022/03/18 12:30:23;;;;;;;5.22;2.05;;;12.90;49.00;;;;;;5037013;28;20064;-84
2022/03/18 12:32:55;;;;;;;5.95;2.10;;;12.90;49.00;;;;;;5042713;28;20048;-83
2022/03/18 12:35:30;;;;;;;6.53;2.10;;;12.90;48.90;;;;;;5040781;28;20053;-84
2022/03/18 12:38:13;;;;;;;12.57;2.38;;;13.00;48.90;;;;;;5040717;28;20103;-84
2022/03/18 12:40:43;;;;;;;6.88;2.40;;;13.00;48.80;;;;;;5040656;28;20063;-84
2022/03/18 12:43:10;;;;;;;5.80;2.20;;;13.10;48.80;;;;;;5040663;28;20048;-84
2022/03/18 12:45:42;;;;;;;5.93;2.85;;;13.10;48.70;;;;;;5036625;28;20041;-84
2022/03/18 12:48:20;;;;;;;5.35;2.30;;;13.20;48.40;;;;;;5039249;28;20046;-85
2022/03/18 12:50:52;;;;;;;9.77;2.70;;;13.20;48.30;;;;;;5036610;28;20049;-85
2022/03/18 12:53:24;;;;;;;5.45;2.30;;;13.30;48.20;;;;;;5037351;28;20057;-85
2022/03/18 12:55:53;;;;;;;9.52;2.65;;;13.30;48.10;;;;;;5037323;28;20045;-83
2022/03/18 12:58:22;;;;;;;5.72;2.35;;;13.30;48.10;;;;;;5037024;28;20497;-84
2022/03/18 13:00:54;;;;;;;5.32;2.45;;;13.40;48.10;;;;;;5035569;28;20383;-84
2022/03/18 13:03:25;;;;;;;5.35;2.00;;;13.40;48.00;;;;;;5034188;28;20068;-83
2022/03/18 13:05:54;;;;;;;8.25;2.42;;;13.40;48.00;;;;;;5038110;28;20132;-84
2022/03/18 13:08:22;;;;;;;5.18;2.30;;;13.40;48.00;;;;;;5037354;28;20111;-84
2022/03/18 13:11:00;;;;;;;6.85;2.72;;;13.40;48.10;;;;;;5037058;28;20052;-85
2022/03/18 13:13:28;;;;;;;5.45;2.13;;;13.50;48.10;;;;;;5036868;28;20041;-85
2022/03/18 13:16:00;;;;;;;7.53;2.40;;;13.50;48.20;;;;;;5035884;28;20497;-85
2022/03/18 13:18:32;;;;;;;5.07;2.22;;;13.50;48.30;;;;;;5031912;28;20045;-85
2022/03/18 13:21:09;;;;;;;7.80;2.70;;;13.60;48.40;;;;;;5078208;28;20049;-85